createdAt,value
2019-01-27T00:01:43.001Z,15.40
2019-01-27T00:04:16.510Z,15.50
2019-01-27T00:06:47.626Z,15.07
2019-01-27T00:09:21.180Z,15.80
2019-01-27T00:11:52.394Z,15.47
2019-01-27T00:14:25.761Z,15.90
2019-01-27T00:16:57.939Z,16.17
2019-01-27T00:19:30.331Z,14.67
2019-01-27T00:22:02.961Z,14.53
2019-01-27T00:24:35.488Z,14.17
2019-01-27T00:27:07.687Z,12.40
2019-01-27T00:29:39.956Z,12.77
2019-01-27T00:32:12.291Z,12.53
2019-01-27T00:34:44.624Z,11.60
2019-01-27T00:37:16.803Z,12.40
2019-01-27T00:39:49.267Z,9.90
2019-01-27T00:42:21.444Z,9.50
2019-01-27T00:44:53.808Z,9.03
2019-01-27T00:47:26.217Z,9.00
2019-01-27T00:49:58.549Z,8.43
2019-01-27T00:52:31.190Z,8.40
2019-01-27T00:55:04.061Z,8.90
2019-01-27T00:57:36.384Z,8.83
2019-01-27T01:00:09.415Z,8.10
2019-01-27T01:02:42.129Z,8.80
2019-01-27T01:05:14.548Z,7.93
2019-01-27T01:07:47.105Z,8.73
2019-01-27T01:10:19.734Z,8.90
2019-01-27T01:12:51.952Z,8.57
2019-01-27T01:15:24.334Z,9.53
2019-01-27T01:17:56.849Z,8.40
2019-01-27T01:20:29.580Z,10.13
2019-01-27T01:23:02.315Z,10.33
2019-01-27T01:25:34.644Z,11.40
2019-01-27T01:28:07.255Z,11.30
2019-01-27T01:30:39.753Z,11.10
2019-01-27T01:33:11.929Z,11.40
2019-01-27T01:35:45.165Z,10.37
2019-01-27T01:38:17.461Z,9.73
2019-01-27T01:40:49.931Z,8.33
2019-01-27T01:43:22.034Z,7.60
2019-01-27T01:45:54.416Z,8.33
2019-01-27T01:48:26.774Z,8.60
2019-01-27T01:50:59.166Z,7.87
2019-01-27T01:53:31.618Z,8.07
2019-01-27T01:56:04.130Z,8.00
2019-01-27T01:58:36.294Z,9.67
2019-01-27T02:01:08.530Z,10.00
2019-01-27T02:03:40.887Z,9.80
2019-01-27T02:06:13.195Z,9.13
2019-01-27T02:08:45.624Z,11.00
2019-01-27T02:11:17.981Z,11.17
2019-01-27T02:13:50.314Z,11.67
2019-01-27T02:16:22.707Z,11.17
2019-01-27T02:18:55.028Z,13.73
2019-01-27T02:21:27.241Z,11.60
2019-01-27T02:23:59.386Z,10.80
2019-01-27T02:26:32.022Z,9.97
2019-01-27T02:29:04.421Z,10.87
2019-01-27T02:31:37.059Z,11.00
2019-01-27T02:34:09.374Z,10.70
2019-01-27T02:36:41.628Z,9.67
2019-01-27T02:39:13.902Z,11.00
2019-01-27T02:41:47.353Z,10.37
2019-01-27T02:44:19.543Z,11.37
2019-01-27T02:46:52.145Z,12.10
2019-01-27T02:49:24.395Z,12.50
2019-01-27T02:51:56.655Z,11.17
2019-01-27T02:54:29.105Z,10.80
2019-01-27T02:57:01.514Z,10.93
2019-01-27T02:59:33.976Z,10.97
2019-01-27T03:02:06.908Z,10.27
2019-01-27T03:04:39.129Z,11.10
2019-01-27T03:07:21.888Z,10.97
2019-01-27T03:09:54.585Z,9.50
2019-01-27T03:12:26.911Z,10.70
2019-01-27T03:14:59.054Z,10.50
2019-01-27T03:17:31.752Z,10.63
2019-01-27T03:20:03.928Z,11.07
2019-01-27T03:22:36.230Z,10.93
2019-01-27T03:25:09.626Z,10.47
2019-01-27T03:27:41.934Z,9.40
2019-01-27T03:30:16.122Z,9.50
2019-01-27T03:32:48.616Z,7.67
2019-01-27T03:35:20.962Z,6.73
2019-01-27T03:37:53.271Z,7.87
2019-01-27T03:40:25.434Z,7.03
2019-01-27T03:42:58.006Z,6.90
2019-01-27T03:45:30.549Z,6.30
2019-01-27T03:48:02.895Z,6.90
2019-01-27T03:50:35.431Z,6.67
2019-01-27T03:53:07.767Z,6.97
2019-01-27T03:55:40.199Z,6.57
2019-01-27T03:58:12.554Z,7.00
2019-01-27T04:00:47.351Z,5.90
2019-01-27T04:03:20.679Z,6.93
2019-01-27T04:05:51.991Z,7.00
2019-01-27T04:08:25.516Z,6.10
2019-01-27T04:10:56.767Z,5.43
2019-01-27T04:13:30.242Z,4.40
2019-01-27T04:16:01.828Z,4.60
2019-01-27T04:18:35.942Z,4.53
2019-01-27T04:21:08.440Z,4.90
2019-01-27T04:23:40.716Z,4.60
2019-01-27T04:26:14.072Z,4.40
2019-01-27T04:28:46.482Z,25.83
2019-01-27T04:31:18.618Z,4.77
2019-01-27T04:33:50.989Z,5.33
2019-01-27T04:36:23.103Z,4.70
2019-01-27T04:38:55.323Z,4.90
2019-01-27T04:41:27.522Z,3.60
2019-01-27T04:43:59.937Z,4.30
2019-01-27T04:46:33.594Z,4.37
2019-01-27T04:49:06.035Z,3.40
2019-01-27T04:51:38.518Z,3.87
2019-01-27T04:54:10.783Z,3.13
2019-01-27T04:56:43.056Z,3.80
2019-01-27T04:59:15.316Z,4.00
2019-01-27T05:01:49.808Z,4.00
2019-01-27T05:04:32.482Z,3.60
2019-01-27T05:07:03.728Z,3.93
2019-01-27T05:09:37.280Z,4.40
2019-01-27T05:12:09.194Z,4.83
2019-01-27T05:14:42.531Z,4.80
2019-01-27T05:17:13.901Z,4.87
2019-01-27T05:19:46.231Z,4.23
2019-01-27T05:22:18.520Z,5.23
2019-01-27T05:24:49.962Z,4.40
2019-01-27T05:27:22.260Z,4.77
2019-01-27T05:29:54.619Z,5.20
2019-01-27T05:32:27.093Z,4.73
2019-01-27T05:34:59.391Z,4.13
2019-01-27T05:37:31.816Z,4.70
2019-01-27T05:40:04.804Z,4.70
2019-01-27T05:42:37.091Z,4.87
2019-01-27T05:45:10.130Z,4.03
2019-01-27T05:47:42.538Z,4.43
2019-01-27T05:50:15.200Z,4.50
2019-01-27T05:52:48.838Z,3.93
2019-01-27T05:55:20.064Z,4.73
2019-01-27T05:57:53.404Z,4.50
2019-01-27T06:00:34.748Z,4.67
2019-01-27T06:03:08.154Z,4.47
2019-01-27T06:05:39.349Z,4.37
2019-01-27T06:08:12.866Z,5.37
2019-01-27T06:10:44.335Z,4.47
2019-01-27T06:13:17.657Z,5.87
2019-01-27T06:15:49.177Z,5.50
2019-01-27T06:18:22.575Z,4.40
2019-01-27T06:20:53.825Z,4.83
2019-01-27T06:23:27.378Z,5.10
2019-01-27T06:25:58.837Z,5.30
2019-01-27T06:28:32.186Z,6.00
2019-01-27T06:31:03.616Z,6.20
2019-01-27T06:33:45.085Z,5.10
2019-01-27T06:36:17.212Z,5.63
2019-01-27T06:38:50.967Z,6.40
2019-01-27T06:41:22.123Z,5.60
2019-01-27T06:43:55.468Z,5.73
2019-01-27T06:46:26.747Z,5.67
2019-01-27T06:49:00.345Z,5.50
2019-01-27T06:51:31.775Z,5.40
2019-01-27T06:54:05.161Z,6.57
2019-01-27T06:56:36.447Z,6.87
2019-01-27T06:59:23.423Z,5.40
2019-01-27T07:02:13.702Z,5.83
2019-01-27T07:04:52.907Z,6.40
2019-01-27T07:07:42.326Z,5.80
2019-01-27T07:10:42.636Z,7.13
2019-01-27T07:13:45.823Z,6.67
2019-01-27T07:16:46.360Z,7.13
2019-01-27T07:19:31.663Z,6.00
2019-01-27T07:22:40.776Z,6.67
2019-01-27T07:25:40.226Z,6.83
2019-01-27T07:28:21.530Z,6.77
2019-01-27T07:31:14.477Z,6.37
2019-01-27T07:34:01.467Z,4.53
2019-01-27T07:36:46.191Z,4.10
2019-01-27T07:39:28.808Z,4.00
2019-01-27T07:42:24.841Z,3.93
2019-01-27T07:45:07.564Z,4.10
2019-01-27T07:47:57.931Z,2.93
2019-01-27T07:50:50.256Z,4.00
2019-01-27T07:53:44.359Z,3.67
2019-01-27T07:56:40.646Z,3.13
2019-01-27T07:59:29.685Z,2.80
2019-01-27T08:02:34.305Z,2.80
2019-01-27T08:05:30.487Z,2.50
2019-01-27T08:08:25.594Z,2.70
2019-01-27T08:11:19.280Z,2.77
2019-01-27T08:14:13.370Z,3.60
2019-01-27T08:17:03.601Z,4.43
2019-01-27T08:19:46.279Z,5.33
2019-01-27T08:22:27.348Z,5.30
2019-01-27T08:25:31.977Z,3.67
2019-01-27T08:28:18.036Z,3.80
2019-01-27T08:31:09.489Z,4.60
2019-01-27T08:33:59.250Z,4.67
2019-01-27T08:36:37.950Z,5.23
2019-01-27T08:39:44.676Z,5.00
2019-01-27T08:42:38.942Z,4.27
2019-01-27T08:45:22.030Z,6.30
2019-01-27T08:47:55.400Z,4.30
2019-01-27T08:50:26.853Z,4.10
2019-01-27T08:53:00.506Z,4.43
2019-01-27T08:55:31.917Z,3.73
2019-01-27T08:58:05.490Z,3.50
2019-01-27T09:00:38.993Z,3.00
2019-01-27T09:03:17.260Z,2.83
2019-01-27T09:06:23.357Z,2.80
2019-01-27T09:09:17.547Z,2.47
2019-01-27T09:12:10.323Z,2.90
2019-01-27T09:15:02.479Z,3.20
2019-01-27T09:17:56.642Z,3.50
2019-01-27T09:20:50.479Z,3.70
2019-01-27T09:23:56.770Z,3.60
2019-01-27T09:26:45.039Z,4.20
2019-01-27T09:29:28.114Z,4.30
2019-01-27T09:32:12.021Z,4.40
2019-01-27T09:35:19.764Z,5.17
2019-01-27T09:38:15.773Z,3.87
2019-01-27T09:41:11.323Z,3.20
2019-01-27T09:43:59.868Z,4.40
2019-01-27T09:46:54.151Z,3.90
2019-01-27T09:49:42.270Z,3.70
2019-01-27T09:52:24.808Z,2.27
2019-01-27T09:55:17.999Z,2.47
2019-01-27T09:58:19.537Z,2.53
2019-01-27T10:01:03.273Z,2.90
2019-01-27T10:03:59.805Z,3.57
2019-01-27T10:06:50.022Z,3.30
2019-01-27T10:09:38.659Z,4.00
2019-01-27T10:12:32.378Z,4.04
2019-01-27T10:15:28.015Z,3.83
2019-01-27T10:18:18.329Z,2.50
2019-01-27T10:21:24.355Z,3.13
2019-01-27T10:24:34.656Z,3.07
2019-01-27T10:27:25.212Z,3.00
2019-01-27T10:30:23.998Z,2.90
2019-01-27T10:33:12.883Z,3.50
2019-01-27T10:36:08.023Z,2.80
2019-01-27T10:39:10.442Z,3.30
2019-01-27T10:41:52.662Z,3.40
2019-01-27T10:44:40.069Z,4.70
2019-01-27T10:47:38.559Z,4.27
2019-01-27T10:50:39.440Z,4.30
2019-01-27T10:53:35.538Z,3.90
2019-01-27T10:56:13.721Z,4.30
2019-01-27T10:59:05.044Z,4.43
2019-01-27T11:02:07.610Z,5.67
2019-01-27T11:04:55.059Z,4.10
2019-01-27T11:07:44.908Z,4.27
2019-01-27T11:10:39.320Z,3.83
2019-01-27T11:13:21.932Z,3.20
2019-01-27T11:16:11.597Z,3.07
2019-01-27T11:18:55.824Z,4.37
2019-01-27T11:21:59.893Z,5.13
2019-01-27T11:24:51.185Z,4.87
2019-01-27T11:27:49.278Z,12.70
2019-01-27T11:30:36.150Z,3.80
2019-01-27T11:33:18.288Z,3.73
2019-01-27T11:36:17.995Z,3.70
2019-01-27T11:39:00.081Z,4.70
2019-01-27T11:41:52.768Z,3.60
2019-01-27T11:44:49.058Z,12.50
2019-01-27T11:47:41.829Z,5.47
2019-01-27T11:50:41.719Z,5.87
2019-01-27T11:53:15.851Z,5.20
2019-01-27T11:55:47.136Z,5.03
2019-01-27T11:58:20.571Z,7.20
2019-01-27T12:00:55.677Z,8.30
2019-01-27T12:03:29.938Z,8.03
2019-01-27T12:06:01.407Z,6.73
2019-01-27T12:08:34.685Z,5.40
2019-01-27T12:11:07.150Z,6.80
2019-01-27T12:13:39.586Z,6.17
2019-01-27T12:16:12.112Z,9.10
2019-01-27T12:18:44.363Z,9.23
2019-01-27T12:21:16.632Z,8.50
2019-01-27T12:23:48.946Z,8.87
2019-01-27T12:26:21.154Z,7.80
2019-01-27T12:28:53.486Z,8.40
2019-01-27T12:31:25.953Z,7.47
2019-01-27T12:33:58.309Z,5.60
2019-01-27T12:36:30.761Z,6.67
2019-01-27T12:39:03.186Z,5.07
2019-01-27T12:41:37.234Z,5.90
2019-01-27T12:44:09.636Z,6.50
2019-01-27T12:46:42.017Z,5.13
2019-01-27T12:49:14.322Z,6.00
2019-01-27T12:51:46.649Z,5.50
2019-01-27T12:54:18.948Z,7.60
2019-01-27T12:56:51.362Z,7.10
2019-01-27T12:59:23.940Z,5.97
2019-01-27T13:01:56.307Z,7.43
2019-01-27T13:04:29.252Z,7.80
2019-01-27T13:07:01.943Z,6.50
2019-01-27T13:09:34.800Z,4.83
2019-01-27T13:12:07.169Z,6.17
2019-01-27T13:14:39.570Z,3.47
2019-01-27T13:17:11.945Z,1.90
2019-01-27T13:19:44.270Z,1.47
2019-01-27T13:22:17.061Z,1.90
2019-01-27T13:24:49.813Z,1.70
2019-01-27T13:27:22.217Z,2.23
2019-01-27T13:29:54.480Z,1.70
2019-01-27T13:32:26.914Z,1.60
2019-01-27T13:34:59.264Z,1.50
2019-01-27T13:37:31.570Z,1.43
2019-01-27T13:40:04.113Z,1.87
2019-01-27T13:42:36.358Z,2.60
2019-01-27T13:45:09.356Z,4.33
2019-01-27T13:47:41.574Z,2.20
2019-01-27T13:50:13.966Z,1.70
2019-01-27T13:52:46.360Z,2.80
2019-01-27T13:55:25.909Z,1.80
2019-01-27T13:57:58.417Z,3.97
2019-01-27T14:00:31.908Z,5.60
2019-01-27T14:03:04.179Z,1.60
2019-01-27T14:05:36.621Z,4.63
2019-01-27T14:08:08.933Z,2.20
2019-01-27T14:10:41.484Z,3.40
2019-01-27T14:13:15.128Z,2.87
2019-01-27T14:15:47.490Z,3.83
2019-01-27T14:18:19.857Z,12.10
2019-01-27T14:20:52.387Z,5.70
2019-01-27T14:23:24.496Z,2.40
2019-01-27T14:25:57.124Z,2.90
2019-01-27T14:28:29.473Z,3.40
2019-01-27T14:31:01.995Z,2.00
2019-01-27T14:33:34.424Z,2.27
2019-01-27T14:36:07.056Z,2.30
2019-01-27T14:38:39.390Z,2.33
2019-01-27T14:41:11.959Z,2.30
2019-01-27T14:43:45.137Z,2.47
2019-01-27T14:46:17.598Z,3.10
2019-01-27T14:48:50.067Z,9.77
2019-01-27T14:51:22.544Z,8.37
2019-01-27T14:53:55.201Z,7.20
2019-01-27T14:56:28.885Z,4.77
2019-01-27T14:59:01.366Z,7.17
2019-01-27T15:01:33.905Z,5.70
2019-01-27T15:04:08.632Z,5.87
2019-01-27T15:06:41.972Z,5.30
2019-01-27T15:09:16.042Z,3.70
2019-01-27T15:11:50.423Z,3.20
2019-01-27T15:14:24.900Z,3.60
2019-01-27T15:16:58.287Z,4.23
2019-01-27T15:19:29.704Z,6.90
2019-01-27T15:22:03.037Z,7.80
2019-01-27T15:24:34.598Z,6.73
2019-01-27T15:27:07.840Z,7.67
2019-01-27T15:29:39.708Z,6.33
2019-01-27T15:32:13.115Z,5.93
2019-01-27T15:34:44.253Z,3.60
2019-01-27T15:37:17.473Z,5.87
2019-01-27T15:39:48.903Z,3.47
2019-01-27T15:42:24.023Z,5.50
2019-01-27T15:44:57.541Z,7.27
2019-01-27T15:47:33.359Z,9.07
2019-01-27T15:50:06.551Z,8.17
2019-01-27T15:52:39.019Z,6.40
2019-01-27T15:55:12.065Z,5.73
2019-01-27T15:57:44.449Z,7.33
2019-01-27T16:00:17.750Z,9.93
2019-01-27T16:02:51.233Z,7.60
2019-01-27T16:05:25.689Z,8.00
2019-01-27T16:07:59.076Z,4.87
2019-01-27T16:10:30.460Z,5.40
2019-01-27T16:13:04.095Z,10.27
2019-01-27T16:15:36.529Z,11.80
2019-01-27T16:18:08.924Z,14.57
2019-01-27T16:20:41.661Z,6.00
2019-01-27T16:23:32.372Z,3.70
2019-01-27T16:26:04.440Z,3.10
2019-01-27T16:28:36.906Z,3.40
2019-01-27T16:31:26.716Z,2.93
2019-01-27T16:34:07.160Z,3.10
2019-01-27T16:36:41.430Z,3.90
2019-01-27T16:39:14.708Z,3.63
2019-01-27T16:41:45.981Z,4.10
2019-01-27T16:44:19.814Z,7.60
2019-01-27T16:46:52.226Z,5.73
2019-01-27T16:49:24.558Z,4.43
2019-01-27T16:51:57.143Z,4.03
2019-01-27T16:54:29.507Z,3.70
2019-01-27T16:57:01.630Z,2.73
2019-01-27T16:59:33.961Z,2.50
2019-01-27T17:02:06.679Z,2.60
2019-01-27T17:04:39.123Z,2.20
2019-01-27T17:07:11.675Z,3.87
2019-01-27T17:09:44.125Z,2.10
2019-01-27T17:12:16.383Z,3.03
2019-01-27T17:14:48.657Z,3.40
2019-01-27T17:17:21.222Z,4.20
2019-01-27T17:19:54.889Z,5.50
2019-01-27T17:22:27.196Z,52.83
2019-01-27T17:24:59.561Z,49.20
2019-01-27T17:27:31.864Z,15.23
2019-01-27T17:30:04.655Z,5.67
2019-01-27T17:32:37.139Z,5.20
2019-01-27T17:35:10.187Z,6.20
2019-01-27T17:37:44.544Z,7.50
2019-01-27T17:40:17.877Z,7.43
2019-01-27T17:42:49.444Z,6.67
2019-01-27T17:45:22.921Z,6.07
2019-01-27T17:47:55.204Z,6.47
2019-01-27T17:50:27.752Z,6.87
2019-01-27T17:53:00.188Z,7.80
2019-01-27T17:55:45.762Z,8.20
2019-01-27T17:58:43.817Z,7.47
2019-01-27T18:01:50.414Z,8.13
2019-01-27T18:04:32.387Z,9.10
2019-01-27T18:07:22.498Z,9.20
2019-01-27T18:10:12.625Z,9.00
2019-01-27T18:12:51.214Z,9.97
2019-01-27T18:15:25.491Z,10.30
2019-01-27T18:17:58.974Z,9.47
2019-01-27T18:20:30.315Z,8.13
2019-01-27T18:23:03.609Z,9.80
2019-01-27T18:25:34.938Z,9.43
2019-01-27T18:28:08.270Z,13.70
2019-01-27T18:30:40.091Z,19.17
2019-01-27T18:33:13.488Z,9.03
2019-01-27T18:35:45.132Z,9.03
2019-01-27T18:38:18.495Z,9.53
2019-01-27T18:40:50.355Z,12.43
2019-01-27T18:43:24.014Z,4.23
2019-01-27T18:45:55.358Z,3.87
2019-01-27T18:48:28.791Z,3.60
2019-01-27T18:51:00.237Z,2.93
2019-01-27T18:53:53.669Z,2.63
2019-01-27T18:56:33.461Z,2.63
2019-01-27T18:59:24.564Z,1.83
2019-01-27T19:02:20.909Z,19.40
2019-01-27T19:05:25.759Z,25.63
2019-01-27T19:08:17.324Z,53.57
2019-01-27T19:10:56.513Z,9.43
2019-01-27T19:13:48.009Z,9.10
2019-01-27T19:16:36.392Z,25.23
2019-01-27T19:19:26.537Z,10.73
2019-01-27T19:22:19.084Z,10.33
2019-01-27T19:25:07.827Z,12.87
2019-01-27T19:28:00.167Z,11.00
2019-01-27T19:30:42.674Z,13.63
2019-01-27T19:33:37.289Z,11.13
2019-01-27T19:36:36.281Z,12.28
2019-01-27T19:39:23.572Z,13.30
2019-01-27T19:42:12.997Z,12.40
2019-01-27T19:45:24.448Z,11.23
2019-01-27T19:48:06.122Z,10.00
2019-01-27T19:50:53.455Z,10.53
2019-01-27T19:53:49.706Z,11.17
2019-01-27T19:57:00.157Z,10.60
2019-01-27T19:59:50.151Z,9.60
2019-01-27T20:02:37.064Z,10.50
2019-01-27T20:05:18.393Z,10.73
2019-01-27T20:08:13.562Z,13.37
2019-01-27T20:11:06.996Z,14.17
2019-01-27T20:14:08.986Z,13.23
2019-01-27T20:16:59.252Z,14.33
2019-01-27T20:20:00.949Z,12.33
2019-01-27T20:22:51.383Z,12.20
2019-01-27T20:25:40.432Z,10.97
2019-01-27T20:28:33.496Z,12.30
2019-01-27T20:31:24.750Z,12.30
2019-01-27T20:34:07.283Z,10.27
2019-01-27T20:37:08.618Z,10.70
2019-01-27T20:39:45.267Z,9.90
2019-01-27T20:42:24.280Z,9.63
2019-01-27T20:45:04.326Z,9.77
2019-01-27T20:47:52.087Z,7.60
2019-01-27T20:50:43.363Z,8.67
2019-01-27T20:53:30.200Z,7.13
2019-01-27T20:56:18.838Z,7.33
2019-01-27T20:59:10.133Z,7.10
2019-01-27T21:02:00.213Z,7.63
2019-01-27T21:04:56.458Z,6.57
2019-01-27T21:07:46.999Z,7.10
2019-01-27T21:10:37.677Z,5.80
2019-01-27T21:13:18.978Z,6.60
2019-01-27T21:16:13.425Z,2.57
2019-01-27T21:18:50.570Z,4.20
2019-01-27T21:21:23.853Z,3.37
2019-01-27T21:23:55.230Z,2.53
2019-01-27T21:26:28.370Z,4.53
2019-01-27T21:28:59.666Z,5.83
2019-01-27T21:31:33.407Z,6.20
2019-01-27T21:34:04.694Z,5.70
2019-01-27T21:36:37.877Z,4.97
2019-01-27T21:39:10.140Z,4.00
2019-01-27T21:41:43.606Z,2.20
2019-01-27T21:44:14.861Z,0.87
2019-01-27T21:46:48.211Z,0.70
2019-01-27T21:49:19.799Z,0.53
2019-01-27T21:51:53.126Z,0.60
2019-01-27T21:54:24.551Z,0.50
2019-01-27T21:56:58.524Z,0.60
2019-01-27T21:59:30.032Z,0.60
2019-01-27T22:02:03.298Z,0.60
2019-01-27T22:04:34.562Z,0.50
2019-01-27T22:07:07.967Z,0.60
2019-01-27T22:09:39.441Z,0.50
2019-01-27T22:12:12.693Z,0.60
2019-01-27T22:14:43.936Z,0.50
2019-01-27T22:17:18.237Z,0.60
2019-01-27T22:19:49.582Z,0.70
2019-01-27T22:22:22.974Z,0.50
2019-01-27T22:24:54.210Z,0.50
2019-01-27T22:27:27.688Z,0.50
2019-01-27T22:29:59.069Z,0.50
2019-01-27T22:32:32.654Z,0.80
2019-01-27T22:35:04.081Z,1.00
2019-01-27T22:37:37.470Z,1.10
2019-01-27T22:40:09.076Z,1.90
2019-01-27T22:42:42.347Z,1.60
2019-01-27T22:45:14.213Z,1.20
2019-01-27T22:47:47.745Z,0.70
2019-01-27T22:50:19.360Z,0.70
2019-01-27T22:52:52.710Z,0.63
2019-01-27T22:55:24.017Z,1.13
2019-01-27T22:57:57.396Z,0.50
2019-01-27T23:00:58.717Z,0.50
2019-01-27T23:03:33.937Z,1.97
2019-01-27T23:06:06.175Z,0.63
2019-01-27T23:08:38.327Z,0.70
2019-01-27T23:11:10.704Z,2.73
2019-01-27T23:13:42.806Z,0.90
2019-01-27T23:16:15.205Z,1.40
2019-01-27T23:18:47.430Z,0.97
2019-01-27T23:21:18.838Z,1.00
2019-01-27T23:23:52.151Z,3.03
2019-01-27T23:26:23.171Z,2.03
2019-01-27T23:28:56.361Z,1.10
2019-01-27T23:31:27.513Z,1.30
2019-01-27T23:34:01.023Z,1.03
2019-01-27T23:36:32.268Z,1.30
2019-01-27T23:39:05.999Z,0.60
2019-01-27T23:41:38.050Z,0.67
2019-01-27T23:44:11.345Z,1.20
2019-01-27T23:46:42.541Z,0.53
2019-01-27T23:49:16.256Z,0.60
2019-01-27T23:51:47.722Z,1.00
2019-01-27T23:54:21.053Z,0.60
2019-01-27T23:56:52.445Z,0.57
2019-01-27T23:59:25.661Z,0.57
